Time;durP1;ratioP1;P1;durP2;ratioP2;P2;SDS_P1;SDS_P2;PMS_P1;PMS_P2;Temp;Humidity;BMP_temperature;BMP_pressure;BME280_temperature;BME280_humidity;BME280_pressure;Samples;Min_cycle;Max_cycle;Signal;HPM_P1;HPM_P2
2021/11/25 00:01:55;;;;;;;32.37;17.07;;;;;;;-2.86;100.00;101158.35;1718037;83;21016;-71
2021/11/25 00:04:22;;;;;;;32.80;17.43;;;;;;;-2.88;100.00;101165.02;1699124;83;21061;-71
2021/11/25 00:06:49;;;;;;;32.53;17.63;;;;;;;-2.84;100.00;101162.27;1693719;83;21034;-71
2021/11/25 00:09:16;;;;;;;34.00;17.90;;;;;;;-2.84;100.00;101155.19;1744103;81;21097;-71
2021/11/25 00:11:43;;;;;;;31.03;17.13;;;;;;;-2.84;100.00;101148.56;1751986;82;21015;-71
2021/11/25 00:14:10;;;;;;;35.27;18.57;;;;;;;-2.87;100.00;101156.17;1751936;82;21039;-71
2021/11/25 00:16:37;;;;;;;33.57;18.50;;;;;;;-2.90;100.00;101147.48;1708619;83;21094;-72
2021/11/25 00:19:04;;;;;;;32.37;18.17;;;;;;;-2.91;100.00;101147.92;1696245;83;21039;-71
2021/11/25 00:21:32;;;;;;;31.30;17.00;;;;;;;-2.88;100.00;101146.96;1714261;83;21031;-70
2021/11/25 00:23:59;;;;;;;36.40;19.53;;;;;;;-2.87;100.00;101145.59;1752059;81;20999;-70
2021/11/25 00:26:26;;;;;;;32.87;17.67;;;;;;;-2.89;100.00;101134.64;1751997;82;21240;-70
2021/11/25 00:28:53;;;;;;;31.20;16.97;;;;;;;-2.90;100.00;101127.17;1752297;82;21022;-72
2021/11/25 00:31:19;;;;;;;34.03;17.77;;;;;;;-2.92;100.00;101129.45;1751970;82;21497;-72
2021/11/25 00:33:46;;;;;;;34.87;18.03;;;;;;;-2.99;100.00;101131.93;1752140;82;20995;-71
2021/11/25 00:36:13;;;;;;;32.43;16.73;;;;;;;-3.02;100.00;101129.42;1752035;82;21026;-71
2021/11/25 00:38:40;;;;;;;31.53;16.97;;;;;;;-3.01;100.00;101127.16;1741904;82;21527;-70
2021/11/25 00:41:06;;;;;;;33.90;18.50;;;;;;;-3.02;100.00;101128.09;1752039;82;21527;-70
2021/11/25 00:43:34;;;;;;;35.60;18.17;;;;;;;-3.05;100.00;101133.03;1740564;82;21516;-72
2021/11/25 00:46:01;;;;;;;33.63;18.87;;;;;;;-3.07;100.00;101128.26;1750826;82;21038;-72
2021/11/25 00:48:27;;;;;;;31.27;18.00;;;;;;;-3.09;100.00;101128.78;1726707;82;21010;-71
2021/11/25 00:50:54;;;;;;;32.97;16.67;;;;;;;-3.11;100.00;101124.02;1752036;82;21031;-71
2021/11/25 00:53:21;;;;;;;31.33;17.43;;;;;;;-3.12;100.00;101120.95;1751500;82;21043;-71
2021/11/25 00:55:48;;;;;;;32.77;16.97;;;;;;;-3.14;100.00;101124.12;1751794;82;21071;-72
2021/11/25 00:58:15;;;;;;;36.00;17.33;;;;;;;-3.15;100.00;101120.62;1747381;82;20979;-72
2021/11/25 01:00:44;;;;;;;30.80;16.50;;;;;;;-3.17;100.00;101118.49;1751861;82;21493;-69
2021/11/25 01:03:11;;;;;;;32.07;16.57;;;;;;;-3.18;100.00;101118.08;1726207;81;21005;-72
2021/11/25 01:05:37;;;;;;;30.47;16.80;;;;;;;-3.19;100.00;101122.09;1728173;82;21028;-71
2021/11/25 01:08:04;;;;;;;33.47;16.70;;;;;;;-3.20;100.00;101121.25;1677285;84;20994;-71
2021/11/25 01:10:31;;;;;;;32.20;16.73;;;;;;;-3.21;100.00;101119.97;1680627;83;21096;-70
2021/11/25 01:12:58;;;;;;;32.33;16.03;;;;;;;-3.19;100.00;101119.45;1673472;84;21019;-71
2021/11/25 01:15:29;;;;;;;33.57;16.63;;;;;;;-3.16;100.00;101122.84;1681442;85;21015;-71
2021/11/25 01:18:02;;;;;;;32.93;17.17;;;;;;;-3.14;100.00;101114.86;1665556;85;21082;-71
2021/11/25 01:20:30;;;;;;;31.00;16.63;;;;;;;-3.16;100.00;101115.37;1654984;84;21554;-71
2021/11/25 01:22:57;;;;;;;31.63;17.33;;;;;;;-3.18;100.00;101116.75;1633234;86;21018;-71
2021/11/25 01:25:24;;;;;;;34.53;16.97;;;;;;;-3.19;100.00;101114.16;1692113;85;21521;-71
2021/11/25 01:27:51;;;;;;;33.27;16.73;;;;;;;-3.20;100.00;101111.98;1673975;84;21009;-71
2021/11/25 01:30:17;;;;;;;31.53;16.50;;;;;;;-3.18;100.00;101117.22;1674337;84;21045;-71
2021/11/25 01:32:46;;;;;;;32.00;16.30;;;;;;;-3.18;100.00;101115.44;1679462;84;21554;-71
2021/11/25 01:35:13;;;;;;;29.37;15.47;;;;;;;-3.15;100.00;101114.44;1682715;84;21037;-71
2021/11/25 01:37:40;;;;;;;31.47;15.90;;;;;;;-3.14;100.00;101110.89;1691444;84;21534;-72
2021/11/25 01:40:12;;;;;;;29.97;16.53;;;;;;;-3.14;100.00;101117.03;1679939;84;21084;-71
2021/11/25 01:42:42;;;;;;;32.70;16.40;;;;;;;-3.16;100.00;101114.91;1694143;84;21008;-70
2021/11/25 01:45:10;;;;;;;32.57;16.37;;;;;;;-3.16;100.00;101118.87;1692124;84;21044;-70
2021/11/25 01:47:44;;;;;;;32.03;16.63;;;;;;;-3.17;100.00;101122.47;1690607;84;21527;-71
2021/11/25 01:50:13;;;;;;;33.50;16.77;;;;;;;-3.15;100.00;101121.94;1680409;84;21514;-71
2021/11/25 01:52:40;;;;;;;36.07;18.97;;;;;;;-3.16;100.00;101122.84;1690640;84;21126;-71
2021/11/25 01:55:09;;;;;;;35.07;17.03;;;;;;;-3.14;100.00;101132.05;1683553;84;21020;-72
2021/11/25 01:57:35;;;;;;;35.40;17.50;;;;;;;-3.14;100.00;101124.97;1685392;84;21102;-71
2021/11/25 02:00:20;;;;;;;31.77;16.50;;;;;;;-3.13;100.00;101125.39;1676209;85;21058;-71
2021/11/25 02:02:48;;;;;;;36.10;16.63;;;;;;;-3.11;100.00;101131.48;1706116;82;21030;-71
2021/11/25 02:05:15;;;;;;;34.10;16.73;;;;;;;-3.10;100.00;101120.42;1738104;81;21012;-71
2021/11/25 02:07:42;;;;;;;31.10;15.90;;;;;;;-3.10;100.00;101125.28;1736737;81;21076;-71
2021/11/25 02:10:10;;;;;;;29.60;15.93;;;;;;;-3.09;100.00;101130.10;1711814;83;21042;-71
2021/11/25 02:12:39;;;;;;;32.90;16.27;;;;;;;-3.09;100.00;101134.08;1669699;85;21796;-71
2021/11/25 02:15:07;;;;;;;29.93;15.27;;;;;;;-3.10;100.00;101123.07;1668868;84;21054;-71
2021/11/25 02:17:35;;;;;;;37.83;16.63;;;;;;;-3.11;100.00;101122.22;1716663;82;21528;-71
2021/11/25 02:20:07;;;;;;;27.03;14.60;;;;;;;-3.15;100.00;101126.34;1666351;85;21130;-70
2021/11/25 02:22:38;;;;;;;29.40;15.13;;;;;;;-3.16;100.00;101132.11;1718720;83;21078;-71
2021/11/25 02:25:06;;;;;;;34.20;15.70;;;;;;;-3.19;100.00;101129.56;1625320;87;21647;-71
2021/11/25 02:27:33;;;;;;;34.13;16.57;;;;;;;-3.20;100.00;101126.53;1606263;88;21047;-70
2021/11/25 02:30:01;;;;;;;34.93;15.83;;;;;;;-3.23;100.00;101125.78;1627772;87;21067;-71
2021/11/25 02:32:43;;;;;;;31.30;16.33;;;;;;;-3.26;100.00;101127.63;1657983;86;21568;-70
2021/11/25 02:35:15;;;;;;;32.40;15.33;;;;;;;-3.27;100.00;101129.00;1603094;89;21591;-71
2021/11/25 02:37:42;;;;;;;31.53;15.03;;;;;;;-3.28;100.00;101126.80;1575389;91;21157;-70
2021/11/25 02:40:39;;;;;;;29.90;15.57;;;;;;;-3.26;100.00;101126.75;1575429;91;21163;-72
2021/11/25 02:43:12;;;;;;;30.97;15.10;;;;;;;-3.26;100.00;101125.42;1564890;90;21617;-70
2021/11/25 02:45:58;;;;;;;34.77;16.53;;;;;;;-3.27;100.00;101128.53;1565704;90;21563;-71
2021/11/25 02:48:32;;;;;;;37.07;17.00;;;;;;;-3.27;100.00;101121.06;1565129;90;21170;-71
2021/11/25 02:51:00;;;;;;;38.90;17.13;;;;;;;-3.27;100.00;101125.89;1576806;91;21491;-71
2021/11/25 02:53:30;;;;;;;33.97;16.23;;;;;;;-3.27;100.00;101123.72;1584850;90;21083;-72
2021/11/25 02:55:58;;;;;;;42.60;19.10;;;;;;;-3.29;100.00;101127.73;1585079;90;21119;-70
2021/11/25 02:58:25;;;;;;;39.50;17.60;;;;;;;-3.31;100.00;101118.11;1584966;90;21051;-71
2021/11/25 03:00:55;;;;;;;32.63;16.83;;;;;;;-3.32;100.00;101113.29;1637630;88;21077;-71
2021/11/25 03:03:22;;;;;;;35.30;16.63;;;;;;;-3.32;100.00;101117.25;1634700;87;21014;-71
2021/11/25 03:05:50;;;;;;;29.23;14.90;;;;;;;-3.34;100.00;101116.45;1619479;87;21069;-71
2021/11/25 03:08:20;;;;;;;27.63;14.57;;;;;;;-3.36;100.00;101111.69;1598506;88;21232;-70
2021/11/25 03:11:00;;;;;;;28.10;15.47;;;;;;;-3.38;100.00;101106.03;1643800;87;21059;-70
2021/11/25 03:13:28;;;;;;;27.70;14.53;;;;;;;-3.40;100.00;101115.81;1647321;86;21047;-70
2021/11/25 03:15:55;;;;;;;26.43;14.80;;;;;;;-3.44;100.00;101109.30;1640774;87;21043;-71
2021/11/25 03:18:22;;;;;;;30.67;15.90;;;;;;;-3.47;100.00;101102.82;1691931;84;21085;-71
2021/11/25 03:20:51;;;;;;;28.50;14.57;;;;;;;-3.50;100.00;101099.42;1692135;85;21030;-71
2021/11/25 03:23:20;;;;;;;27.37;15.17;;;;;;;-3.53;100.00;101104.81;1692140;85;21022;-71
2021/11/25 03:25:47;;;;;;;27.40;14.63;;;;;;;-3.54;100.00;101101.31;1692285;85;21555;-71
2021/11/25 03:28:14;;;;;;;28.57;14.40;;;;;;;-3.55;100.00;101095.61;1692064;85;21059;-71
2021/11/25 03:30:42;;;;;;;27.20;14.10;;;;;;;-3.56;100.00;101099.62;1692419;85;21034;-71
2021/11/25 03:33:10;;;;;;;27.20;14.00;;;;;;;-3.58;100.00;101098.36;1691962;85;21071;-70
2021/11/25 03:35:37;;;;;;;29.03;13.97;;;;;;;-3.63;100.00;101102.51;1750085;82;21042;-71
2021/11/25 03:38:04;;;;;;;26.03;14.00;;;;;;;-3.66;100.00;101092.50;1747343;82;21082;-71
2021/11/25 03:40:33;;;;;;;27.40;14.17;;;;;;;-3.68;100.00;101095.66;1751978;82;20999;-71
2021/11/25 03:42:59;;;;;;;29.13;14.50;;;;;;;-3.70;100.00;101094.39;1738573;81;20999;-71
2021/11/25 03:45:26;;;;;;;29.13;14.40;;;;;;;-3.70;100.00;101093.50;1751980;82;21034;-70
2021/11/25 03:47:53;;;;;;;27.93;14.63;;;;;;;-3.71;100.00;101091.80;1751860;82;21074;-70
2021/11/25 03:50:20;;;;;;;29.73;15.27;;;;;;;-3.74;100.00;101098.03;1751904;82;20995;-71
2021/11/25 03:52:47;;;;;;;27.17;14.30;;;;;;;-3.74;100.00;101095.86;1751637;82;21070;-71
2021/11/25 03:55:15;;;;;;;29.93;16.17;;;;;;;-3.75;100.00;101092.80;1751930;82;21488;-72
2021/11/25 03:57:42;;;;;;;34.87;16.47;;;;;;;-3.76;100.00;101094.59;1751940;82;21011;-70
2021/11/25 04:00:11;;;;;;;27.67;15.50;;;;;;;-3.76;100.00;101095.91;1743449;82;21014;-70
2021/11/25 04:02:41;;;;;;;29.37;15.27;;;;;;;-3.76;100.00;101099.02;1743596;81;21547;-72
2021/11/25 04:05:09;;;;;;;25.23;13.90;;;;;;;-3.76;100.00;101094.59;1737173;81;21039;-70
2021/11/25 04:07:37;;;;;;;30.37;15.00;;;;;;;-3.77;100.00;101095.52;1745809;81;21513;-71
2021/11/25 04:10:05;;;;;;;27.03;14.53;;;;;;;-3.78;100.00;101096.89;1743622;81;21013;-71
2021/11/25 04:12:32;;;;;;;30.73;15.03;;;;;;;-3.80;100.00;101092.13;1735424;81;21471;-71
2021/11/25 04:15:00;;;;;;;26.80;14.10;;;;;;;-3.82;100.00;101094.82;1743492;81;20992;-71
2021/11/25 04:17:28;;;;;;;29.93;13.80;;;;;;;-3.83;100.00;101097.05;1749435;81;21035;-70
2021/11/25 04:19:56;;;;;;;27.30;14.93;;;;;;;-3.85;100.00;101100.20;1734799;81;21021;-70
2021/11/25 04:22:24;;;;;;;28.20;14.77;;;;;;;-3.87;100.00;101102.89;1752614;81;21537;-70
2021/11/25 04:24:54;;;;;;;27.27;14.13;;;;;;;-3.87;100.00;101101.57;1729648;81;21084;-71
2021/11/25 04:27:21;;;;;;;27.93;14.50;;;;;;;-3.86;100.00;101099.35;1739893;82;21055;-69
2021/11/25 04:35:29;;;;;;;27.23;14.67;;;;;;;-3.87;100.00;101108.18;1747195;81;21091;-71
2021/11/25 04:38:11;;;;;;;25.83;14.33;;;;;;;-3.85;100.00;101105.48;1733301;81;21092;-70
2021/11/25 04:40:44;;;;;;;27.83;15.50;;;;;;;-3.84;100.00;101104.59;1740798;81;21055;-70
2021/11/25 04:43:12;;;;;;;29.23;15.80;;;;;;;-3.84;100.00;101114.69;1674522;84;21051;-71
2021/11/25 04:45:40;;;;;;;30.13;15.30;;;;;;;-3.84;100.00;101114.69;1678256;84;21590;-70
2021/11/25 04:48:07;;;;;;;27.73;14.93;;;;;;;-3.83;100.00;101110.26;1673026;84;21137;-71
2021/11/25 04:50:34;;;;;;;27.53;15.07;;;;;;;-3.84;100.00;101112.52;1641465;84;21588;-71
2021/11/25 04:53:01;;;;;;;29.27;16.37;;;;;;;-3.85;100.00;101117.38;1667829;84;21067;-72
2021/11/25 04:55:29;;;;;;;31.53;15.63;;;;;;;-3.86;100.00;101116.53;1662931;84;21044;-71
2021/11/25 04:57:56;;;;;;;29.07;14.77;;;;;;;-3.84;100.00;101117.80;1657036;85;21355;-72
2021/11/25 05:00:23;;;;;;;32.67;17.83;;;;;;;-3.84;100.00;101121.30;1666534;84;21336;-72
2021/11/25 05:02:51;;;;;;;36.93;17.73;;;;;;;-3.83;100.00;101121.69;1652078;84;21109;-70
2021/11/25 05:05:18;;;;;;;39.43;20.17;;;;;;;-3.87;100.00;101127.15;1642512;84;21473;-70
2021/11/25 05:07:47;;;;;;;41.40;21.87;;;;;;;-3.90;100.00;101126.77;1657353;85;21082;-72
2021/11/25 05:10:14;;;;;;;40.73;21.33;;;;;;;-3.93;100.00;101122.05;1615957;87;21043;-72
2021/11/25 05:12:41;;;;;;;36.73;19.87;;;;;;;-3.94;100.00;101128.27;1620945;87;21614;-71
2021/11/25 05:15:11;;;;;;;32.70;17.83;;;;;;;-3.95;100.00;101129.17;1620506;86;21043;-73
2021/11/25 05:17:38;;;;;;;30.07;16.03;;;;;;;-3.96;100.00;101130.96;1625671;87;21596;-71
2021/11/25 05:20:07;;;;;;;31.90;17.03;;;;;;;-3.95;100.00;101128.70;1624859;87;21114;-71
2021/11/25 05:22:34;;;;;;;40.13;20.53;;;;;;;-3.95;100.00;101131.34;1623034;87;21075;-71
2021/11/25 05:25:01;;;;;;;33.70;18.40;;;;;;;-3.93;100.00;101137.47;1629483;87;21007;-71
2021/11/25 05:27:28;;;;;;;34.73;18.23;;;;;;;-3.92;100.00;101133.90;1620653;88;21059;-72
2021/11/25 05:29:55;;;;;;;37.67;18.93;;;;;;;-3.92;100.00;101141.83;1620262;87;21101;-71
2021/11/25 05:32:22;;;;;;;30.43;16.43;;;;;;;-3.90;100.00;101147.91;1621038;87;21062;-72
2021/11/25 05:34:49;;;;;;;30.17;15.63;;;;;;;-3.89;100.00;101141.73;1614521;87;21108;-71
2021/11/25 05:37:18;;;;;;;29.37;15.80;;;;;;;-3.87;100.00;101145.64;1620597;87;21568;-71
2021/11/25 05:39:45;;;;;;;28.83;15.50;;;;;;;-3.87;100.00;101141.22;1620248;83;21009;-72
2021/11/25 05:42:11;;;;;;;28.33;15.53;;;;;;;-3.84;100.00;101135.83;1704762;83;21471;-73
2021/11/25 05:44:40;;;;;;;28.47;14.70;;;;;;;-3.82;100.00;101136.64;1704114;83;21105;-72
2021/11/25 05:47:08;;;;;;;28.17;14.83;;;;;;;-3.74;100.00;101144.77;1713204;81;21031;-73
2021/11/25 05:49:35;;;;;;;28.07;14.33;;;;;;;-3.62;100.00;101139.05;1710389;83;21051;-72
2021/11/25 05:52:02;;;;;;;28.37;14.87;;;;;;;-3.47;100.00;101150.86;1716723;82;21020;-71
2021/11/25 05:54:29;;;;;;;28.10;15.63;;;;;;;-3.39;100.00;101143.99;1716574;83;21023;-72
2021/11/25 05:56:57;;;;;;;29.83;15.73;;;;;;;-3.32;100.00;101146.35;1713312;82;21038;-73
2021/11/25 05:59:24;;;;;;;29.33;15.57;;;;;;;-3.31;100.00;101149.41;1691291;83;20996;-72
2021/11/25 06:01:51;;;;;;;28.47;15.00;;;;;;;-3.29;100.00;101148.04;1696451;83;21512;-71
2021/11/25 06:04:18;;;;;;;29.77;15.57;;;;;;;-3.27;100.00;101149.70;1684006;83;20992;-72
2021/11/25 06:06:45;;;;;;;36.77;17.57;;;;;;;-3.27;100.00;101154.13;1721009;83;20979;-72
2021/11/25 06:09:11;;;;;;;28.00;15.43;;;;;;;-3.25;100.00;101161.55;1720293;83;21591;-72
2021/11/25 06:11:38;;;;;;;27.53;14.63;;;;;;;-3.23;100.00;101162.83;1708331;83;21616;-72
2021/11/25 06:14:07;;;;;;;31.93;16.60;;;;;;;-3.20;100.00;101160.08;1711518;82;21004;-72
2021/11/25 06:16:34;;;;;;;31.20;15.83;;;;;;;-3.18;100.00;101163.52;1719858;83;21132;-71
2021/11/25 06:19:01;;;;;;;29.97;16.60;;;;;;;-3.14;100.00;101164.66;1703320;83;21551;-72
2021/11/25 06:21:28;;;;;;;30.40;16.90;;;;;;;-3.09;100.00;101165.83;1681505;83;21039;-71
2021/11/25 06:23:55;;;;;;;36.90;16.30;;;;;;;-3.07;100.00;101164.84;1673787;84;21568;-72
2021/11/25 06:26:22;;;;;;;29.10;17.10;;;;;;;-3.06;100.00;101167.90;1693291;84;21031;-72
2021/11/25 06:28:49;;;;;;;30.57;16.43;;;;;;;-3.02;100.00;101167.33;1685290;84;21634;-72
2021/11/25 06:31:18;;;;;;;28.43;15.90;;;;;;;-2.98;100.00;101164.11;1660626;86;21071;-71
2021/11/25 06:33:45;;;;;;;27.57;15.20;;;;;;;-2.94;100.00;101169.67;1695768;84;21577;-73
2021/11/25 06:36:12;;;;;;;27.60;15.67;;;;;;;-2.88;100.00;101163.70;1702586;84;21042;-71
2021/11/25 06:38:39;;;;;;;27.00;15.47;;;;;;;-2.79;100.00;101164.28;1709727;83;21521;-72
2021/11/25 06:41:07;;;;;;;29.13;15.70;;;;;;;-2.75;100.00;101165.88;1726793;83;21587;-72
2021/11/25 06:43:38;;;;;;;26.70;15.13;;;;;;;-2.70;100.00;101159.48;1715394;83;21198;-73
2021/11/25 06:46:05;;;;;;;27.30;15.03;;;;;;;-2.64;100.00;101157.53;1713578;82;20976;-72
2021/11/25 06:48:33;;;;;;;26.87;15.70;;;;;;;-2.56;100.00;101164.73;1726165;82;21013;-73
2021/11/25 06:51:00;;;;;;;28.10;16.20;;;;;;;-2.46;100.00;101166.10;1739713;80;21004;-72
2021/11/25 06:53:28;;;;;;;29.50;16.97;;;;;;;-2.36;100.00;101163.94;1748436;82;21034;-74
2021/11/25 06:55:56;;;;;;;29.30;16.97;;;;;;;-2.27;100.00;101168.00;1740421;81;21014;-72
2021/11/25 06:58:23;;;;;;;27.37;15.00;;;;;;;-2.23;100.00;101161.21;1683113;84;21432;-70
2021/11/25 07:00:50;;;;;;;26.17;15.20;;;;;;;-2.12;100.00;101156.33;1733377;81;21502;-70
2021/11/25 07:03:19;;;;;;;30.47;16.07;;;;;;;-2.01;100.00;101159.86;1728687;81;20998;-72
2021/11/25 07:05:46;;;;;;;33.07;16.23;;;;;;;-1.89;100.00;101164.24;1627183;86;21282;-72
2021/11/25 07:08:13;;;;;;;35.30;20.43;;;;;;;-1.77;100.00;101159.75;1642642;85;21482;-73
2021/11/25 07:10:40;;;;;;;29.97;18.37;;;;;;;-1.63;100.00;101165.36;1625502;86;21544;-72
2021/11/25 07:13:08;;;;;;;28.03;16.27;;;;;;;-1.42;100.00;101165.34;1649588;85;21050;-74
2021/11/25 07:15:35;;;;;;;33.77;15.93;;;;;;;-1.34;100.00;101167.22;1641156;86;21028;-77
2021/11/25 07:18:04;;;;;;;27.63;15.40;;;;;;;-1.28;100.00;101165.60;1640235;86;21035;-75
2021/11/25 07:20:31;;;;;;;27.63;15.37;;;;;;;-1.24;100.00;101166.33;1634727;86;21067;-76
2021/11/25 07:23:01;;;;;;;29.13;17.03;;;;;;;-1.20;100.00;101163.95;1634191;87;21106;-76
2021/11/25 07:25:28;;;;;;;30.40;17.57;;;;;;;-1.03;100.00;101160.05;1627952;86;21044;-74
2021/11/25 07:27:55;;;;;;;26.10;14.37;;;;;;;-0.83;100.00;101147.22;1627462;87;21020;-75
2021/11/25 07:30:22;;;;;;;25.53;14.53;;;;;;;-0.70;100.00;101146.65;1614570;86;21094;-74
2021/11/25 07:32:49;;;;;;;24.97;13.77;;;;;;;-0.53;100.00;101150.70;1604061;86;21138;-75
2021/11/25 07:35:19;;;;;;;37.93;24.07;;;;;;;-0.30;100.00;101144.73;1613317;86;21564;-74
2021/11/25 07:37:51;;;;;;;33.50;19.30;;;;;;;-0.12;100.00;101145.18;1616790;86;21035;-74
2021/11/25 07:40:18;;;;;;;33.23;22.27;;;;;;;0.09;100.00;101145.92;1565856;90;21215;-73
2021/11/25 07:42:46;;;;;;;47.50;30.53;;;;;;;0.32;100.00;101138.10;1568688;89;21194;-74
2021/11/25 07:45:17;;;;;;;40.10;24.53;;;;;;;0.50;100.00;101148.75;1573301;88;21054;-73
2021/11/25 07:47:47;;;;;;;57.33;37.70;;;;;;;0.62;100.00;101135.25;1568142;88;21540;-70
2021/11/25 07:50:19;;;;;;;61.30;34.53;;;;;;;0.75;100.00;101134.53;1568849;89;21091;-73
2021/11/25 07:52:45;;;;;;;37.43;20.97;;;;;;;0.95;100.00;101141.45;1550306;90;21080;-74
2021/11/25 07:55:13;;;;;;;30.10;16.83;;;;;;;1.20;100.00;101132.13;1559706;88;21768;-76
2021/11/25 07:57:43;;;;;;;50.30;26.53;;;;;;;1.46;100.00;101124.51;1543520;91;21227;-74
2021/11/25 08:00:13;;;;;;;55.60;28.90;;;;;;;1.58;100.00;101128.30;1570323;89;21038;-71
2021/11/25 08:02:41;;;;;;;39.10;20.97;;;;;;;1.70;100.00;101132.94;1606249;86;21063;-73
2021/11/25 08:05:08;;;;;;;31.10;18.30;;;;;;;1.73;100.00;101129.22;1647722;85;21683;-72
2021/11/25 08:07:36;;;;;;;30.00;18.23;;;;;;;1.64;100.00;101130.60;1639534;85;21055;-71
2021/11/25 08:10:05;;;;;;;35.57;20.67;;;;;;;1.58;100.00;101122.97;1637848;87;21143;-71
2021/11/25 08:12:32;;;;;;;37.90;21.97;;;;;;;1.50;100.00;101116.72;1649843;84;21111;-71
2021/11/25 08:15:01;;;;;;;55.77;39.20;;;;;;;1.51;100.00;101124.63;1647300;85;21048;-73
2021/11/25 08:17:28;;;;;;;41.87;30.23;;;;;;;1.49;100.00;101124.34;1642782;85;21541;-74
2021/11/25 08:19:55;;;;;;;25.27;14.17;;;;;;;1.60;100.00;101129.06;1642132;85;21143;-74
2021/11/25 08:22:22;;;;;;;24.97;16.20;;;;;;;1.66;100.00;101127.38;1632586;86;21603;-74
2021/11/25 08:24:49;;;;;;;33.83;21.17;;;;;;;1.66;100.00;101115.37;1635682;85;21058;-74
2021/11/25 08:27:16;;;;;;;31.57;20.77;;;;;;;1.68;100.00;101119.69;1630896;87;21064;-71
2021/11/25 08:29:43;;;;;;;24.40;15.00;;;;;;;1.75;100.00;101117.50;1606117;87;21020;-71
2021/11/25 08:32:10;;;;;;;23.80;14.00;;;;;;;1.87;100.00;101120.80;1634757;86;21096;-75
2021/11/25 08:34:37;;;;;;;24.03;13.97;;;;;;;2.01;100.00;101113.82;1620499;87;21155;-73
2021/11/25 08:37:04;;;;;;;29.13;15.37;;;;;;;2.05;100.00;101110.02;1630516;87;21101;-77
2021/11/25 08:39:31;;;;;;;28.83;17.63;;;;;;;2.16;100.00;101105.38;1637712;86;21247;-74
2021/11/25 08:41:58;;;;;;;32.23;18.67;;;;;;;2.27;100.00;101103.80;1630310;87;21111;-75
2021/11/25 08:44:25;;;;;;;51.50;26.37;;;;;;;2.41;100.00;101102.13;1702435;83;21541;-74
2021/11/25 08:46:52;;;;;;;54.87;28.60;;;;;;;2.59;100.00;101092.98;1715900;83;20999;-75
2021/11/25 08:49:19;;;;;;;33.97;19.93;;;;;;;2.84;100.00;101091.47;1712807;82;21094;-72
2021/11/25 08:51:46;;;;;;;30.33;18.60;;;;;;;2.93;100.00;101084.70;1716734;82;21068;-74
2021/11/25 08:54:13;;;;;;;26.00;15.80;;;;;;;2.94;100.00;101089.95;1716828;83;21028;-76
2021/11/25 08:56:40;;;;;;;31.77;21.53;;;;;;;2.84;100.00;101080.78;1724194;82;21036;-77
2021/11/25 08:59:07;;;;;;;36.53;24.00;;;;;;;2.75;100.00;101088.05;1721869;83;21032;-75
2021/11/25 09:01:34;;;;;;;37.40;24.30;;;;;;;2.83;100.00;101087.07;1720365;80;21087;-74
2021/11/25 09:04:01;;;;;;;35.27;23.60;;;;;;;2.89;100.00;101077.84;1744400;82;21023;-73
2021/11/25 09:06:27;;;;;;;34.50;20.30;;;;;;;2.92;100.00;101081.63;1748497;81;21025;-73
2021/11/25 09:08:54;;;;;;;30.80;18.77;;;;;;;3.04;100.00;101079.03;1746549;81;21085;-72
2021/11/25 09:11:21;;;;;;;53.33;34.87;;;;;;;3.14;100.00;101070.46;1743329;81;21163;-73
2021/11/25 09:13:48;;;;;;;41.07;25.20;;;;;;;3.17;100.00;101067.11;1750492;80;21060;-73
2021/11/25 09:16:17;;;;;;;44.23;27.13;;;;;;;3.14;100.00;101071.80;1737092;81;21041;-74
2021/11/25 09:18:44;;;;;;;57.00;34.17;;;;;;;3.15;100.00;101069.48;1724557;81;21090;-74
2021/11/25 09:21:11;;;;;;;64.50;39.53;;;;;;;3.08;100.00;101067.70;1744547;80;21735;-72
2021/11/25 09:23:38;;;;;;;46.57;29.23;;;;;;;3.05;100.00;101070.56;1735723;81;21014;-71
2021/11/25 09:26:06;;;;;;;40.60;26.77;;;;;;;3.25;100.00;101069.28;1751165;80;21063;-70
2021/11/25 09:28:35;;;;;;;25.83;15.50;;;;;;;3.25;100.00;101067.09;1754577;81;21066;-73
2021/11/25 09:31:02;;;;;;;30.47;19.97;;;;;;;3.27;100.00;101058.50;1745775;81;21079;-72
2021/11/25 09:33:29;;;;;;;27.60;16.60;;;;;;;3.26;100.00;101064.33;1740098;80;21026;-72
2021/11/25 09:35:56;;;;;;;31.43;18.30;;;;;;;3.14;100.00;101059.77;1732595;80;21012;-72
2021/11/25 09:38:23;;;;;;;29.63;17.70;;;;;;;3.12;100.00;101063.87;1738337;81;21076;-72
2021/11/25 09:40:50;;;;;;;34.03;20.40;;;;;;;3.18;100.00;101056.78;1744624;81;21037;-74
2021/11/25 09:43:22;;;;;;;35.53;21.67;;;;;;;3.25;100.00;101059.08;1698233;82;21053;-73
2021/11/25 09:45:50;;;;;;;27.93;17.70;;;;;;;3.35;100.00;101068.22;1713766;82;21040;-74
2021/11/25 09:48:19;;;;;;;30.57;17.03;;;;;;;3.40;100.00;101055.42;1684757;83;21500;-72
2021/11/25 09:50:49;;;;;;;27.17;16.17;;;;;;;3.45;100.00;101058.62;1715105;83;21003;-74
2021/11/25 09:53:18;;;;;;;25.63;14.27;;;;;;;3.46;100.00;101059.02;1718410;83;21034;-73
2021/11/25 09:55:50;;;;;;;28.50;16.40;;;;;;;3.54;100.00;101055.83;1718071;83;21070;-74
2021/11/25 09:58:22;;;;;;;31.47;18.50;;;;;;;3.62;100.00;101056.19;1712794;82;21063;-74
2021/11/25 10:00:57;;;;;;;27.58;15.03;;;;;;;3.75;100.00;101044.19;1666813;85;22381;-74
2021/11/25 10:03:24;;;;;;;36.10;21.77;;;;;;;3.85;100.00;101041.77;1663146;84;21133;-74
2021/11/25 10:05:55;;;;;;;35.23;22.07;;;;;;;3.84;100.00;101042.22;1649538;84;21082;-73
2021/11/25 10:08:44;;;;;;;30.57;15.47;;;;;;;3.94;100.00;101039.80;1671588;83;21078;-73
2021/11/25 10:11:15;;;;;;;22.77;13.10;;;;;;;4.07;100.00;101035.80;1646723;85;21051;-76
2021/11/25 10:13:47;;;;;;;;;;;;;;;4.07;100.00;101034.01;1615628;86;21854;-78
2021/11/25 10:16:20;;;;;;;26.53;14.80;;;;;;;4.08;100.00;101030.35;1628628;87;20116;-73
2021/11/25 10:18:53;;;;;;;35.48;19.70;;;;;;;4.03;100.00;101032.48;1612246;89;21078;-71
2021/11/25 10:21:22;;;;;;;53.05;28.32;;;;;;;3.99;100.00;101029.16;1615423;88;21538;-69
2021/11/25 10:23:51;;;;;;;41.27;22.27;;;;;;;3.86;100.00;101017.59;1597831;89;21548;-68
2021/11/25 10:26:27;;;;;;;35.77;19.17;;;;;;;3.89;100.00;101021.86;1617025;87;21082;-71
2021/11/25 10:29:03;;;;;;;25.17;13.50;;;;;;;3.99;100.00;101024.30;1637017;86;21082;-67
2021/11/25 10:31:33;;;;;;;25.90;12.70;;;;;;;4.02;100.00;101016.06;1643053;86;21578;-69
2021/11/25 10:34:18;;;;;;;40.00;18.73;;;;;;;4.03;100.00;101011.06;1616080;88;21103;-70
2021/11/25 10:42:09;;;;;;;26.07;14.17;;;;;;;4.36;100.00;100996.33;1574392;89;21579;-71
2021/11/25 10:44:43;;;;;;;31.47;17.37;;;;;;;4.49;100.00;100981.09;1571759;88;21150;-69
2021/11/25 10:47:19;;;;;;;28.95;15.15;;;;;;;4.51;100.00;100980.98;1576549;88;21156;-70
2021/11/25 10:49:59;;;;;;;28.17;15.37;;;;;;;4.47;100.00;100979.50;1548186;92;21577;-71
2021/11/25 10:52:30;;;;;;;28.73;14.13;;;;;;;4.40;100.00;100976.39;1520845;92;21093;-68
2021/11/25 10:55:01;;;;;;;25.77;13.67;;;;;;;4.41;100.00;100980.80;1530071;91;21596;-67
2021/11/25 10:57:49;;;;;;;27.07;14.00;;;;;;;4.41;100.00;100979.45;1528609;92;21216;-70
2021/11/25 11:00:34;;;;;;;26.73;14.40;;;;;;;4.37;100.00;100969.91;1541792;91;21101;-69
2021/11/25 11:03:19;;;;;;;41.37;22.43;;;;;;;4.32;100.00;100972.05;1534890;91;21076;-68
2021/11/25 11:05:57;;;;;;;;;;;;;;;4.32;100.00;100964.01;1548046;91;21113;-70
2021/11/25 11:08:44;;;;;;;21.80;11.80;;;;;;;4.42;100.00;100957.54;1513697;92;20256;-69
2021/11/25 11:11:12;;;;;;;32.23;18.30;;;;;;;4.53;100.00;100957.62;1534287;90;21068;-70
2021/11/25 11:13:50;;;;;;;23.10;12.67;;;;;;;4.58;100.00;100953.28;1566115;88;21129;-69
2021/11/25 11:18:56;;;;;;;26.37;13.67;;;;;;;4.82;100.00;100947.98;1575712;89;21121;-70
2021/11/25 11:21:48;;;;;;;20.53;10.20;;;;;;;4.85;100.00;100953.09;1505765;92;21182;-73
2021/11/25 11:24:24;;;;;;;18.17;9.33;;;;;;;4.84;100.00;100944.70;1464889;95;21204;-70
2021/11/25 11:26:54;;;;;;;24.03;12.13;;;;;;;4.92;100.00;100939.63;1470799;95;21138;-70